Time;durP1;ratioP1;P1;durP2;ratioP2;P2;SDS_P1;SDS_P2;PMS_P1;PMS_P2;Temp;Humidity;BMP_temperature;BMP_pressure;BME280_temperature;BME280_humidity;BME280_pressure;Samples;Min_cycle;Max_cycle;Signal;HPM_P1;HPM_P2
2021/01/03 00:00:11;;;;;;;10.97;9.70;;;3.50;99.90;;;;;;5014183;28;20434;-67
2021/01/03 00:02:36;;;;;;;10.87;9.53;;;3.40;99.90;;;;;;5014249;28;20187;-66
2021/01/03 00:05:03;;;;;;;10.80;9.80;;;3.30;99.90;;;;;;5014363;28;20970;-66
2021/01/03 00:07:28;;;;;;;11.90;10.33;;;3.50;99.90;;;;;;5017294;28;20198;-66
2021/01/03 00:09:54;;;;;;;10.00;8.90;;;3.50;99.90;;;;;;5014176;28;20506;-66
2021/01/03 00:12:19;;;;;;;10.13;9.13;;;3.60;99.90;;;;;;5014219;28;20253;-67
2021/01/03 00:14:45;;;;;;;9.67;8.67;;;3.60;99.90;;;;;;5014163;28;20184;-66
2021/01/03 00:17:10;;;;;;;10.80;8.97;;;3.40;99.90;;;;;;5014211;28;20259;-66
2021/01/03 00:19:36;;;;;;;10.73;9.20;;;3.30;99.90;;;;;;5014332;28;20195;-66
2021/01/03 00:22:02;;;;;;;9.63;8.70;;;3.40;99.90;;;;;;5013884;28;20176;-67
2021/01/03 00:24:27;;;;;;;10.93;9.83;;;3.50;99.90;;;;;;5014260;28;20171;-67
2021/01/03 00:26:53;;;;;;;11.40;9.87;;;3.50;99.90;;;;;;5014638;28;20194;-67
2021/01/03 00:29:18;;;;;;;10.73;9.60;;;3.60;99.90;;;;;;5013980;28;20188;-67
2021/01/03 00:31:47;;;;;;;11.20;9.63;;;3.80;99.90;;;;;;5014559;28;20176;-67
2021/01/03 00:34:14;;;;;;;10.73;9.07;;;3.70;99.90;;;;;;5014434;28;20159;-67
2021/01/03 00:36:40;;;;;;;12.70;9.20;;;3.50;99.90;;;;;;5013949;28;20402;-67
2021/01/03 00:39:06;;;;;;;11.70;9.80;;;3.50;99.90;;;;;;5013841;28;21019;-67
2021/01/03 00:41:32;;;;;;;10.50;9.07;;;3.40;99.90;;;;;;5013901;28;20196;-67
2021/01/03 00:43:57;;;;;;;9.77;8.50;;;3.40;99.90;;;;;;5013626;28;20442;-66
2021/01/03 00:46:23;;;;;;;9.83;8.70;;;3.50;99.90;;;;;;5014229;28;20192;-66
2021/01/03 00:48:49;;;;;;;10.10;8.80;;;3.60;99.90;;;;;;4995949;28;20624;-67
2021/01/03 00:51:14;;;;;;;11.40;9.67;;;3.70;99.90;;;;;;5013695;28;20242;-68
2021/01/03 00:53:40;;;;;;;10.00;8.97;;;3.70;99.90;;;;;;5013585;28;20195;-67
2021/01/03 00:56:05;;;;;;;11.87;9.60;;;3.60;99.90;;;;;;5013612;28;20176;-66
2021/01/03 00:58:31;;;;;;;12.17;9.90;;;3.50;99.90;;;;;;5013764;28;20742;-67
2021/01/03 01:00:57;;;;;;;10.40;9.30;;;3.40;99.90;;;;;;5013474;28;20184;-67
2021/01/03 01:03:22;;;;;;;10.03;9.03;;;3.40;99.90;;;;;;4995936;28;20176;-66
2021/01/03 01:05:48;;;;;;;10.13;9.03;;;3.40;99.90;;;;;;5013483;28;20220;-67
2021/01/03 01:08:13;;;;;;;9.90;8.90;;;3.40;99.90;;;;;;5013391;28;20290;-67
2021/01/03 01:10:39;;;;;;;10.20;9.10;;;3.50;99.90;;;;;;5013743;28;20532;-67
2021/01/03 01:13:05;;;;;;;12.67;9.00;;;3.50;99.90;;;;;;5013432;28;20175;-67
2021/01/03 01:15:32;;;;;;;12.80;9.40;;;3.50;99.90;;;;;;5013226;28;20251;-67
2021/01/03 01:18:04;;;;;;;9.90;9.00;;;3.40;99.90;;;;;;5013302;28;20249;-67
2021/01/03 01:20:32;;;;;;;10.87;9.77;;;3.40;99.90;;;;;;5013277;28;20529;-67
2021/01/03 01:22:58;;;;;;;10.10;8.33;;;3.50;99.90;;;;;;5013506;28;20574;-67
2021/01/03 01:25:27;;;;;;;12.43;8.60;;;3.80;99.90;;;;;;4995571;28;20502;-67
2021/01/03 01:27:54;;;;;;;9.50;8.50;;;3.80;99.90;;;;;;5013589;28;20164;-66
2021/01/03 01:30:20;;;;;;;11.50;9.53;;;3.80;99.90;;;;;;5012957;28;20430;-67
2021/01/03 01:32:46;;;;;;;10.97;9.37;;;3.70;99.90;;;;;;5014326;28;20792;-67
2021/01/03 01:35:15;;;;;;;8.80;7.90;;;3.50;99.90;;;;;;5017162;28;20407;-67
2021/01/03 01:37:40;;;;;;;11.30;9.97;;;3.60;99.90;;;;;;5017436;28;20411;-67
2021/01/03 01:40:08;;;;;;;10.47;8.80;;;3.40;99.90;;;;;;5017163;28;20480;-67
2021/01/03 01:42:34;;;;;;;10.97;9.70;;;3.30;99.90;;;;;;5017069;28;20164;-67
2021/01/03 01:45:00;;;;;;;11.97;10.67;;;3.50;99.90;;;;;;5016677;28;20442;-67
2021/01/03 01:47:32;;;;;;;10.10;9.10;;;3.70;99.90;;;;;;5016881;28;20172;-67
2021/01/03 01:50:02;;;;;;;11.00;9.20;;;3.60;99.90;;;;;;5016850;28;20446;-67
2021/01/03 01:52:36;;;;;;;10.47;9.27;;;3.50;99.90;;;;;;5016885;28;20414;-67
2021/01/03 01:55:07;;;;;;;13.20;9.90;;;3.50;99.90;;;;;;5017139;28;20391;-67
2021/01/03 01:57:40;;;;;;;12.17;9.90;;;3.50;99.90;;;;;;5017126;28;20390;-67
2021/01/03 02:00:15;;;;;;;11.00;9.90;;;3.40;99.90;;;;;;5016761;28;20431;-67
2021/01/03 02:02:56;;;;;;;10.10;9.00;;;3.50;99.90;;;;;;5017961;28;20889;-66
2021/01/03 02:05:34;;;;;;;11.93;10.63;;;3.70;99.90;;;;;;5018341;28;20508;-68
2021/01/03 02:08:14;;;;;;;10.53;9.43;;;3.50;99.90;;;;;;5000328;28;20801;-67
2021/01/03 02:10:45;;;;;;;12.47;11.07;;;3.40;99.90;;;;;;5007820;28;20394;-67
2021/01/03 02:13:40;;;;;;;11.83;10.63;;;3.40;99.90;;;;;;5036772;28;20401;-67
2021/01/03 02:16:30;;;;;;;15.53;10.20;;;3.20;99.90;;;;;;5035874;28;20455;-67
2021/01/03 02:18:56;;;;;;;13.97;11.70;;;3.10;99.90;;;;;;5036470;28;20570;-67
2021/01/03 02:21:33;;;;;;;13.87;11.43;;;2.90;99.90;;;;;;5034426;28;20485;-68
2021/01/03 02:24:27;;;;;;;13.67;11.57;;;3.00;99.90;;;;;;5006910;28;20170;-67
2021/01/03 02:27:20;;;;;;;13.20;11.10;;;3.00;99.90;;;;;;5012755;28;20441;-67
2021/01/03 02:29:48;;;;;;;16.53;12.90;;;2.80;99.90;;;;;;5035044;28;20433;-67
2021/01/03 02:32:14;;;;;;;14.93;12.40;;;2.80;99.90;;;;;;5019627;28;20931;-67
2021/01/03 02:34:45;;;;;;;15.10;12.20;;;2.70;99.90;;;;;;5016892;28;20873;-67
2021/01/03 02:37:22;;;;;;;15.87;13.40;;;2.60;99.90;;;;;;5016419;28;20387;-67
2021/01/03 02:40:10;;;;;;;14.10;12.60;;;2.60;99.90;;;;;;5016335;28;20419;-67
2021/01/03 02:42:38;;;;;;;15.50;13.17;;;2.70;99.90;;;;;;5016146;28;20904;-66
2021/01/03 02:45:16;;;;;;;15.70;13.33;;;2.70;99.90;;;;;;5015109;28;20446;-66
2021/01/03 02:47:42;;;;;;;17.57;14.50;;;2.80;99.90;;;;;;5016237;28;20407;-66
2021/01/03 02:50:11;;;;;;;16.90;14.23;;;2.70;99.90;;;;;;5015697;28;20445;-67
2021/01/03 02:52:42;;;;;;;13.63;12.03;;;2.60;99.90;;;;;;5015810;28;20171;-67
2021/01/03 02:55:09;;;;;;;18.53;14.20;;;2.70;99.90;;;;;;5016072;28;20387;-67
2021/01/03 02:57:35;;;;;;;17.67;14.30;;;2.80;99.90;;;;;;5015762;28;20828;-67
2021/01/03 03:00:01;;;;;;;17.57;14.37;;;2.90;99.90;;;;;;5015430;28;20595;-67
2021/01/03 03:02:26;;;;;;;18.13;14.30;;;3.00;99.90;;;;;;5015532;28;20183;-67
2021/01/03 03:04:52;;;;;;;21.23;16.73;;;2.90;99.90;;;;;;5015668;28;21061;-67
2021/01/03 03:07:18;;;;;;;18.27;15.60;;;2.70;99.90;;;;;;5015474;28;20167;-67
2021/01/03 03:09:44;;;;;;;17.17;14.80;;;2.70;99.90;;;;;;5015351;28;20183;-67
2021/01/03 03:12:10;;;;;;;16.70;14.80;;;2.60;99.90;;;;;;5015723;28;20225;-66
2021/01/03 03:14:35;;;;;;;16.50;14.27;;;2.60;99.90;;;;;;5015382;28;20772;-67
2021/01/03 03:17:05;;;;;;;19.67;15.83;;;2.70;99.90;;;;;;5015591;28;20182;-66
2021/01/03 03:19:30;;;;;;;15.77;13.93;;;2.70;99.90;;;;;;5015485;28;20188;-66
2021/01/03 03:21:56;;;;;;;19.10;16.30;;;2.80;99.90;;;;;;5015235;28;20414;-66
2021/01/03 03:24:22;;;;;;;20.67;17.13;;;2.80;99.90;;;;;;5015212;28;20222;-67
2021/01/03 03:26:51;;;;;;;17.93;15.50;;;2.70;99.90;;;;;;5015100;28;20568;-67
2021/01/03 03:29:17;;;;;;;18.63;15.10;;;2.70;99.90;;;;;;5015161;28;20220;-66
2021/01/03 03:31:43;;;;;;;17.37;15.10;;;2.60;99.90;;;;;;5015095;28;20422;-67
2021/01/03 03:34:08;;;;;;;16.67;14.80;;;2.60;99.90;;;;;;5014995;28;20776;-66
2021/01/03 03:36:34;;;;;;;17.53;15.60;;;2.70;99.90;;;;;;5015042;28;20255;-67
2021/01/03 03:38:59;;;;;;;18.03;15.03;;;2.70;99.90;;;;;;5014935;28;20279;-66
2021/01/03 03:41:26;;;;;;;18.60;16.27;;;2.80;99.90;;;;;;5015010;28;20280;-66
2021/01/03 03:43:52;;;;;;;16.53;14.63;;;2.80;99.90;;;;;;4997257;28;20186;-66
2021/01/03 03:46:18;;;;;;;19.80;16.70;;;2.90;99.90;;;;;;5014884;28;20454;-66
2021/01/03 03:48:44;;;;;;;19.80;15.80;;;2.80;99.90;;;;;;5014844;28;20199;-66
2021/01/03 03:51:15;;;;;;;17.87;15.80;;;2.80;99.90;;;;;;4997169;28;20176;-66
2021/01/03 03:53:41;;;;;;;17.53;14.57;;;2.80;99.90;;;;;;5015131;28;20388;-65
2021/01/03 03:56:09;;;;;;;16.50;14.70;;;2.80;99.90;;;;;;5013665;28;20829;-66
2021/01/03 03:58:34;;;;;;;19.30;15.43;;;2.80;99.90;;;;;;5014974;28;20218;-65
2021/01/03 04:01:00;;;;;;;18.80;14.80;;;2.90;99.90;;;;;;5014647;28;20961;-66
2021/01/03 04:03:25;;;;;;;20.27;16.63;;;3.00;99.90;;;;;;5014958;28;20182;-66
2021/01/03 04:05:51;;;;;;;17.97;15.80;;;3.00;99.90;;;;;;5014636;28;20199;-67
2021/01/03 04:08:16;;;;;;;17.93;16.07;;;3.00;99.90;;;;;;5015047;28;20616;-65
2021/01/03 04:10:42;;;;;;;19.60;16.70;;;2.90;99.90;;;;;;5014793;28;20196;-67
2021/01/03 04:13:09;;;;;;;19.40;16.30;;;2.90;99.90;;;;;;4996891;28;20176;-67
2021/01/03 04:15:35;;;;;;;18.43;15.37;;;3.00;99.90;;;;;;5016871;28;20864;-65
2021/01/03 04:18:02;;;;;;;18.70;16.10;;;3.20;99.90;;;;;;5014498;28;20431;-67
2021/01/03 04:20:27;;;;;;;19.67;16.13;;;3.20;99.90;;;;;;5014236;28;20470;-67
2021/01/03 04:22:53;;;;;;;17.53;15.27;;;3.20;99.90;;;;;;5014399;28;20426;-66
2021/01/03 04:25:19;;;;;;;16.73;13.87;;;3.20;99.90;;;;;;5014174;28;20219;-67
2021/01/03 04:27:45;;;;;;;20.90;17.17;;;3.20;99.90;;;;;;5014494;28;20181;-67
2021/01/03 04:30:12;;;;;;;20.23;16.80;;;3.20;99.90;;;;;;5013909;28;20423;-67
2021/01/03 04:32:38;;;;;;;17.97;15.20;;;3.10;99.90;;;;;;5013984;28;20648;-67
2021/01/03 04:35:08;;;;;;;21.17;16.60;;;3.30;99.90;;;;;;5014231;28;20414;-67
2021/01/03 04:37:34;;;;;;;19.13;15.10;;;3.10;99.90;;;;;;5014712;28;20178;-67
2021/01/03 04:40:00;;;;;;;18.33;16.07;;;3.00;99.90;;;;;;5013865;28;20939;-67
2021/01/03 04:42:32;;;;;;;18.83;15.43;;;3.20;99.90;;;;;;5013805;28;20418;-67
2021/01/03 04:45:01;;;;;;;17.10;15.00;;;3.10;99.90;;;;;;5013696;28;20198;-67
2021/01/03 04:47:32;;;;;;;18.60;15.87;;;3.00;99.90;;;;;;5013999;28;20529;-67
2021/01/03 04:50:25;;;;;;;20.53;17.53;;;2.90;99.90;;;;;;5013571;28;20453;-67
2021/01/03 04:53:09;;;;;;;21.90;18.17;;;3.10;99.90;;;;;;5013697;28;20457;-67
2021/01/03 04:55:41;;;;;;;17.63;14.87;;;3.00;99.90;;;;;;5013889;28;20868;-67
2021/01/03 04:58:15;;;;;;;16.67;14.87;;;2.90;99.90;;;;;;5013803;28;20395;-67
2021/01/03 05:00:57;;;;;;;20.50;17.50;;;2.90;99.90;;;;;;5013533;28;20421;-67
2021/01/03 05:03:50;;;;;;;16.77;15.00;;;2.80;99.90;;;;;;5012882;28;20442;-67
2021/01/03 05:06:19;;;;;;;18.60;16.60;;;2.90;99.90;;;;;;5013526;28;20915;-66
2021/01/03 05:08:52;;;;;;;23.40;18.10;;;2.90;99.90;;;;;;5013826;28;20458;-67
2021/01/03 05:11:26;;;;;;;18.73;15.47;;;3.00;99.90;;;;;;5013725;28;20922;-67
2021/01/03 05:14:07;;;;;;;20.77;16.30;;;3.00;99.90;;;;;;5013412;28;20383;-67
2021/01/03 05:16:32;;;;;;;19.07;16.70;;;2.90;99.90;;;;;;5021455;28;20417;-67
2021/01/03 05:18:58;;;;;;;18.60;16.00;;;3.10;99.90;;;;;;5032968;28;20773;-67
2021/01/03 05:21:23;;;;;;;19.43;16.13;;;3.10;99.90;;;;;;5033087;28;20171;-67
2021/01/03 05:23:58;;;;;;;21.23;17.40;;;3.20;99.90;;;;;;5033384;28;20176;-66
2021/01/03 05:26:33;;;;;;;18.77;15.17;;;3.20;99.90;;;;;;5032915;28;20710;-67
2021/01/03 05:29:00;;;;;;;21.87;17.00;;;3.20;99.90;;;;;;5033163;28;20428;-67
2021/01/03 05:31:27;;;;;;;19.73;16.73;;;2.90;99.90;;;;;;5031583;28;20475;-67
2021/01/03 05:34:00;;;;;;;19.83;16.57;;;3.00;99.90;;;;;;5013428;28;20489;-67
2021/01/03 05:36:33;;;;;;;21.73;18.10;;;3.00;99.90;;;;;;5013472;28;20413;-67
2021/01/03 05:39:03;;;;;;;20.30;16.87;;;3.00;99.90;;;;;;5013370;28;20484;-67
2021/01/03 05:41:43;;;;;;;17.07;14.30;;;3.00;99.90;;;;;;4995452;28;20422;-67
2021/01/03 05:44:15;;;;;;;20.80;17.30;;;3.00;99.90;;;;;;5013159;28;20393;-67
2021/01/03 05:46:45;;;;;;;20.27;17.70;;;2.90;99.90;;;;;;5012880;28;20448;-67
2021/01/03 05:49:23;;;;;;;18.50;15.87;;;2.90;99.90;;;;;;5012956;28;20446;-67
2021/01/03 05:52:02;;;;;;;19.47;15.57;;;2.80;99.90;;;;;;5013027;28;20383;-67
2021/01/03 05:54:34;;;;;;;18.50;15.83;;;2.80;99.90;;;;;;5013124;28;20497;-67
2021/01/03 05:57:27;;;;;;;20.50;16.77;;;2.70;99.90;;;;;;5012604;28;20508;-66
2021/01/03 05:59:53;;;;;;;19.40;16.00;;;2.90;99.90;;;;;;5012622;28;20437;-66
2021/01/03 06:02:26;;;;;;;20.10;15.80;;;2.90;99.90;;;;;;5012965;28;20930;-66
2021/01/03 06:05:12;;;;;;;17.10;15.30;;;3.00;99.90;;;;;;5011499;28;20461;-66
2021/01/03 06:07:39;;;;;;;14.20;12.03;;;3.00;99.90;;;;;;5013531;28;21014;-66
2021/01/03 06:10:32;;;;;;;15.53;13.83;;;2.90;99.90;;;;;;5012825;28;20561;-67
2021/01/03 06:12:59;;;;;;;19.00;15.30;;;2.80;99.90;;;;;;5010688;28;20508;-67
2021/01/03 06:15:27;;;;;;;16.87;14.43;;;2.70;99.90;;;;;;5015064;28;20418;-66
2021/01/03 06:17:58;;;;;;;20.03;16.10;;;2.70;99.90;;;;;;5012852;28;20896;-67
2021/01/03 06:20:28;;;;;;;19.23;17.00;;;2.70;99.90;;;;;;5016279;28;21115;-67
2021/01/03 06:23:30;;;;;;;17.63;15.57;;;2.80;99.90;;;;;;5016444;28;20418;-67
2021/01/03 06:26:03;;;;;;;18.13;16.23;;;2.70;99.90;;;;;;5016594;28;20437;-67
2021/01/03 06:28:51;;;;;;;16.50;14.50;;;2.90;99.90;;;;;;5016459;28;20436;-67
2021/01/03 06:31:42;;;;;;;17.43;15.47;;;2.70;99.90;;;;;;5015836;28;20415;-67
2021/01/03 06:34:23;;;;;;;17.93;16.03;;;2.70;99.90;;;;;;5019020;28;20425;-67
2021/01/03 06:37:05;;;;;;;19.63;15.97;;;2.50;99.90;;;;;;5009523;28;20462;-67
2021/01/03 06:39:49;;;;;;;17.43;13.07;;;2.60;99.90;;;;;;5036040;28;20449;-67
2021/01/03 06:42:48;;;;;;;18.40;15.50;;;2.60;99.90;;;;;;5035795;28;20492;-67
2021/01/03 06:45:32;;;;;;;17.83;14.40;;;2.50;99.90;;;;;;5017684;28;20484;-66
2021/01/03 06:48:30;;;;;;;19.73;16.27;;;2.60;99.90;;;;;;5017906;28;20500;-67
2021/01/03 06:50:59;;;;;;;18.23;15.40;;;2.60;99.90;;;;;;5035924;28;20406;-66
2021/01/03 06:54:06;;;;;;;16.63;14.63;;;2.60;99.90;;;;;;5035743;28;20410;-67
2021/01/03 06:56:47;;;;;;;18.23;14.90;;;2.90;99.90;;;;;;5015000;28;21025;-66
2021/01/03 06:59:33;;;;;;;19.10;14.13;;;2.90;99.90;;;;;;5015712;28;20492;-66
2021/01/03 07:01:59;;;;;;;17.07;14.47;;;3.00;99.90;;;;;;5015496;28;20437;-66
2021/01/03 07:04:30;;;;;;;17.90;15.00;;;3.00;99.90;;;;;;5015622;28;20446;-67
2021/01/03 07:07:08;;;;;;;17.70;14.73;;;2.90;99.90;;;;;;5015545;28;20197;-66
2021/01/03 07:09:33;;;;;;;17.37;15.37;;;2.80;99.90;;;;;;5015766;28;20993;-66
2021/01/03 07:12:00;;;;;;;19.30;15.50;;;2.70;99.90;;;;;;5015796;28;20485;-67
2021/01/03 07:14:25;;;;;;;18.67;15.80;;;2.70;99.90;;;;;;5015760;28;20174;-66
2021/01/03 07:17:14;;;;;;;20.13;16.00;;;2.90;99.90;;;;;;5015175;28;20407;-66
2021/01/03 07:19:57;;;;;;;17.17;14.93;;;3.00;99.90;;;;;;5015475;28;20195;-66
2021/01/03 07:22:34;;;;;;;18.10;14.20;;;3.10;99.90;;;;;;5015618;28;20438;-66
2021/01/03 07:24:59;;;;;;;18.50;15.30;;;3.10;99.90;;;;;;5015453;28;20826;-64
2021/01/03 07:27:25;;;;;;;17.97;15.57;;;2.90;99.90;;;;;;5015148;28;20421;-66
2021/01/03 07:30:21;;;;;;;17.53;15.73;;;2.80;99.90;;;;;;5015058;28;20191;-66
2021/01/03 07:32:54;;;;;;;16.00;14.17;;;2.90;99.90;;;;;;5015439;28;20163;-67
2021/01/03 07:35:19;;;;;;;19.23;15.20;;;2.80;99.90;;;;;;5015188;28;20393;-66
2021/01/03 07:37:45;;;;;;;20.60;16.07;;;2.70;99.90;;;;;;5015278;28;20407;-66
2021/01/03 07:40:17;;;;;;;18.23;14.90;;;2.80;99.90;;;;;;5015158;28;20199;-68
2021/01/03 07:42:42;;;;;;;21.47;15.43;;;2.80;99.90;;;;;;5014923;28;20506;-67
2021/01/03 07:45:14;;;;;;;18.90;15.57;;;2.90;99.90;;;;;;5014573;28;20540;-66
2021/01/03 07:47:45;;;;;;;17.80;15.10;;;3.00;99.90;;;;;;5014878;28;20199;-66
2021/01/03 07:50:17;;;;;;;20.30;15.80;;;3.10;99.90;;;;;;5014619;28;20500;-67
2021/01/03 07:52:44;;;;;;;20.70;15.70;;;3.00;99.90;;;;;;5015010;28;20399;-67
2021/01/03 07:55:25;;;;;;;20.00;16.20;;;3.00;99.90;;;;;;5014796;28;20418;-67
2021/01/03 07:58:04;;;;;;;20.60;16.10;;;3.00;99.90;;;;;;5014847;28;20814;-67
2021/01/03 08:00:33;;;;;;;18.80;16.23;;;3.00;99.90;;;;;;5014287;28;20481;-67
2021/01/03 08:03:16;;;;;;;19.97;16.20;;;3.00;99.90;;;;;;5014790;28;20415;-67
2021/01/03 08:05:43;;;;;;;23.80;17.57;;;3.00;99.90;;;;;;5014759;28;20492;-67
2021/01/03 08:08:24;;;;;;;20.60;16.63;;;3.00;99.90;;;;;;4999603;28;20414;-67
2021/01/03 08:11:11;;;;;;;18.70;16.40;;;3.10;99.90;;;;;;5014328;28;20764;-67
2021/01/03 08:13:44;;;;;;;19.10;16.03;;;3.00;99.90;;;;;;5014629;28;20399;-67
2021/01/03 08:16:10;;;;;;;25.63;18.43;;;3.00;99.90;;;;;;5014262;28;20783;-67
2021/01/03 08:18:44;;;;;;;18.33;15.40;;;3.10;99.90;;;;;;5014417;28;20430;-67
2021/01/03 08:21:18;;;;;;;22.93;15.83;;;3.20;99.90;;;;;;5014705;28;20442;-68
2021/01/03 08:23:44;;;;;;;20.47;16.03;;;3.20;99.90;;;;;;5014419;28;20819;-67
2021/01/03 08:26:19;;;;;;;21.10;16.97;;;3.20;99.90;;;;;;5013949;28;20586;-67
2021/01/03 08:28:57;;;;;;;22.03;16.80;;;3.30;99.90;;;;;;4994586;28;20871;-66
2021/01/03 08:31:24;;;;;;;17.70;14.73;;;3.30;99.90;;;;;;4994430;28;20411;-67
2021/01/03 08:33:51;;;;;;;18.00;14.57;;;3.30;99.90;;;;;;4994461;28;20491;-67
2021/01/03 08:36:23;;;;;;;19.93;15.90;;;3.30;99.90;;;;;;4994291;28;20923;-67
2021/01/03 08:38:48;;;;;;;23.40;16.77;;;3.50;99.90;;;;;;4994230;28;20804;-67
2021/01/03 08:41:23;;;;;;;19.47;15.40;;;3.50;99.90;;;;;;4976388;28;20424;-67
2021/01/03 08:43:49;;;;;;;16.90;14.50;;;3.60;99.90;;;;;;4994217;28;20153;-67
2021/01/03 08:46:22;;;;;;;17.07;15.27;;;3.70;99.90;;;;;;4994053;28;20952;-66
2021/01/03 08:48:56;;;;;;;19.17;14.80;;;3.70;99.90;;;;;;4992792;28;20459;-66
2021/01/03 08:51:21;;;;;;;18.83;15.60;;;3.60;99.90;;;;;;4994656;28;20381;-66
2021/01/03 08:53:47;;;;;;;22.57;16.77;;;3.60;99.90;;;;;;4994059;28;20416;-66
2021/01/03 08:56:15;;;;;;;15.40;13.63;;;3.70;99.90;;;;;;4994460;28;20179;-68
2021/01/03 08:58:41;;;;;;;15.93;13.53;;;3.50;99.90;;;;;;5014053;28;20262;-66
2021/01/03 09:01:20;;;;;;;15.60;13.83;;;3.40;99.90;;;;;;4996371;28;20521;-67
2021/01/03 09:03:50;;;;;;;18.73;15.50;;;3.50;99.90;;;;;;5013716;28;20869;-67
2021/01/03 09:06:16;;;;;;;17.47;13.60;;;3.40;99.90;;;;;;5013852;28;20488;-66
2021/01/03 09:08:44;;;;;;;21.00;17.90;;;3.50;99.90;;;;;;5013555;28;20438;-67
2021/01/03 09:11:13;;;;;;;19.50;16.00;;;3.60;99.90;;;;;;5013441;28;20395;-67
2021/01/03 09:13:48;;;;;;;18.27;15.90;;;3.60;99.90;;;;;;4995730;28;20780;-67
2021/01/03 09:16:20;;;;;;;20.07;18.00;;;3.70;99.90;;;;;;5013295;28;20409;-66
2021/01/03 09:19:13;;;;;;;20.17;18.07;;;3.80;99.90;;;;;;5013876;28;20449;-66
2021/01/03 09:21:52;;;;;;;31.10;27.93;;;3.80;99.90;;;;;;5013649;28;20395;-67
2021/01/03 09:24:24;;;;;;;20.13;17.93;;;3.80;99.90;;;;;;4995855;28;20417;-67
2021/01/03 09:26:50;;;;;;;17.03;15.13;;;3.60;99.90;;;;;;5014880;28;20509;-67
2021/01/03 09:29:22;;;;;;;17.40;14.90;;;3.60;99.90;;;;;;5024342;28;20469;-67
2021/01/03 09:32:02;;;;;;;15.63;13.67;;;3.60;99.90;;;;;;5015650;28;20481;-65
2021/01/03 09:34:51;;;;;;;16.00;14.40;;;3.80;99.90;;;;;;5033441;28;20497;-67
2021/01/03 09:37:26;;;;;;;14.30;12.60;;;3.90;99.90;;;;;;5033403;28;20383;-70
2021/01/03 09:40:22;;;;;;;14.43;12.80;;;3.90;99.90;;;;;;5033164;28;20433;-66
2021/01/03 09:43:06;;;;;;;15.73;13.57;;;3.90;99.90;;;;;;5033611;28;20889;-67
2021/01/03 09:45:36;;;;;;;14.97;13.37;;;3.80;99.90;;;;;;5033137;28;20523;-66
2021/01/03 09:48:02;;;;;;;14.53;12.73;;;3.80;99.90;;;;;;5034785;28;20483;-66
2021/01/03 09:50:41;;;;;;;15.67;13.13;;;4.00;99.90;;;;;;5033892;28;20436;-66
2021/01/03 09:53:19;;;;;;;14.60;13.07;;;4.00;99.90;;;;;;5033895;28;20433;-68
2021/01/03 09:56:13;;;;;;;15.00;13.40;;;3.90;99.90;;;;;;5037189;28;20448;-69
2021/01/03 09:58:41;;;;;;;16.50;14.10;;;3.90;99.90;;;;;;4997711;28;20867;-68
2021/01/03 10:01:21;;;;;;;26.00;21.13;;;3.90;99.90;;;;;;4997567;28;20411;-68
2021/01/03 10:03:47;;;;;;;21.50;17.77;;;3.80;99.90;;;;;;4998068;28;20934;-67
2021/01/03 10:06:14;;;;;;;22.80;18.70;;;3.90;99.90;;;;;;4997367;28;20451;-68
2021/01/03 10:08:40;;;;;;;19.73;17.63;;;4.10;99.90;;;;;;4997140;28;20192;-65
2021/01/03 10:11:05;;;;;;;15.83;13.70;;;4.00;99.90;;;;;;4997431;28;20423;-69
2021/01/03 10:13:31;;;;;;;35.00;26.50;;;4.00;99.90;;;;;;5018019;28;20176;-67
2021/01/03 10:15:58;;;;;;;16.00;14.30;;;4.00;99.90;;;;;;5016463;28;20176;-68
2021/01/03 10:18:37;;;;;;;16.37;14.47;;;4.00;99.90;;;;;;5016523;28;20259;-68
2021/01/03 10:21:26;;;;;;;17.80;15.10;;;3.90;99.90;;;;;;5016631;28;20441;-65
2021/01/03 10:23:58;;;;;;;17.80;14.80;;;3.90;99.90;;;;;;5016791;28;20796;-67
2021/01/03 10:26:29;;;;;;;19.63;14.57;;;4.00;99.90;;;;;;5016647;28;20454;-68
2021/01/03 10:28:54;;;;;;;16.23;14.50;;;4.10;99.90;;;;;;5017020;28;21002;-66
2021/01/03 10:31:22;;;;;;;18.03;14.60;;;3.90;99.90;;;;;;5016199;28;20403;-66
2021/01/03 10:33:49;;;;;;;16.93;14.90;;;4.10;99.90;;;;;;5016622;28;20167;-65
2021/01/03 10:36:17;;;;;;;16.40;13.70;;;4.20;99.90;;;;;;5016728;28;20415;-67
2021/01/03 10:38:43;;;;;;;17.60;14.90;;;4.20;99.90;;;;;;5016694;28;20431;-66
2021/01/03 10:41:09;;;;;;;15.37;13.73;;;4.10;99.90;;;;;;5016385;28;20409;-66
2021/01/03 10:43:34;;;;;;;16.40;14.60;;;4.00;99.90;;;;;;5016152;28;20663;-66
2021/01/03 10:46:00;;;;;;;15.43;13.70;;;3.90;99.90;;;;;;5015917;28;20263;-65
2021/01/03 10:48:26;;;;;;;16.37;14.70;;;4.10;99.90;;;;;;5016262;28;20179;-65
2021/01/03 10:50:51;;;;;;;17.97;15.17;;;4.20;99.90;;;;;;5016241;28;20243;-66
2021/01/03 10:53:17;;;;;;;18.40;15.83;;;4.20;99.90;;;;;;5016375;28;20161;-67
2021/01/03 10:55:42;;;;;;;18.90;16.20;;;4.10;99.90;;;;;;5016098;28;20534;-67
2021/01/03 10:58:08;;;;;;;16.83;15.03;;;4.10;99.90;;;;;;5016540;28;20195;-66
2021/01/03 11:00:34;;;;;;;17.07;15.13;;;4.10;99.90;;;;;;5015893;28;20209;-67
2021/01/03 11:02:59;;;;;;;19.27;15.60;;;4.00;99.90;;;;;;4998051;28;20168;-66
2021/01/03 11:05:25;;;;;;;16.70;14.90;;;3.90;99.90;;;;;;5015995;28;20271;-67
2021/01/03 11:07:50;;;;;;;16.47;13.87;;;4.10;99.90;;;;;;5016554;28;20179;-67
2021/01/03 11:10:16;;;;;;;20.80;16.90;;;4.00;99.90;;;;;;5016271;28;20270;-65
2021/01/03 11:12:42;;;;;;;17.63;14.97;;;4.00;99.90;;;;;;5016570;28;20169;-66
2021/01/03 11:15:09;;;;;;;16.03;13.97;;;4.00;99.90;;;;;;5016480;28;20171;-67
2021/01/03 11:17:35;;;;;;;16.43;13.60;;;4.30;99.90;;;;;;5015806;28;20411;-66
2021/01/03 11:20:00;;;;;;;16.80;13.93;;;4.10;99.90;;;;;;5015892;28;20434;-67
2021/01/03 11:22:26;;;;;;;15.53;13.10;;;4.20;99.90;;;;;;5015997;28;20183;-67
2021/01/03 11:24:52;;;;;;;16.63;13.13;;;4.20;99.90;;;;;;5016011;28;20176;-68
2021/01/03 11:27:20;;;;;;;15.70;13.93;;;4.10;99.90;;;;;;5014305;28;20176;-68
2021/01/03 11:29:46;;;;;;;18.10;13.80;;;4.10;99.90;;;;;;5018804;28;20719;-67
2021/01/03 11:32:15;;;;;;;18.47;15.37;;;4.20;99.90;;;;;;5027962;28;20414;-67
2021/01/03 11:34:41;;;;;;;16.63;14.80;;;4.30;99.90;;;;;;5035250;28;20408;-66
2021/01/03 11:37:13;;;;;;;17.47;14.93;;;4.20;99.90;;;;;;5035268;28;20800;-67
2021/01/03 11:39:39;;;;;;;17.53;14.53;;;4.20;99.90;;;;;;5034848;28;20424;-67
2021/01/03 11:42:15;;;;;;;18.97;16.13;;;4.30;99.90;;;;;;5035425;28;20398;-66
2021/01/03 11:44:43;;;;;;;17.23;14.50;;;4.30;99.90;;;;;;5035645;28;20205;-67
2021/01/03 11:47:18;;;;;;;18.03;14.17;;;4.40;99.90;;;;;;5034814;28;20410;-67
2021/01/03 11:49:45;;;;;;;15.47;13.80;;;4.50;99.90;;;;;;5035007;28;20867;-66
2021/01/03 11:52:10;;;;;;;16.87;15.07;;;4.60;99.90;;;;;;5035110;28;20436;-67
2021/01/03 11:54:37;;;;;;;20.97;17.80;;;4.50;99.90;;;;;;5035646;28;20484;-65
2021/01/03 11:57:04;;;;;;;17.53;15.63;;;4.50;99.90;;;;;;5028092;28;20184;-66
2021/01/03 11:59:29;;;;;;;16.10;14.13;;;4.50;99.90;;;;;;5015336;28;20427;-66
2021/01/03 12:02:00;;;;;;;18.40;15.63;;;4.30;99.90;;;;;;5014984;28;20937;-66
2021/01/03 12:04:26;;;;;;;19.80;16.50;;;4.30;99.90;;;;;;5015124;28;20168;-66
2021/01/03 12:07:04;;;;;;;22.60;17.90;;;4.30;99.90;;;;;;5023310;28;20812;-67
2021/01/03 12:09:30;;;;;;;18.20;15.43;;;4.30;99.90;;;;;;5035331;28;20422;-66
2021/01/03 12:11:57;;;;;;;19.00;15.50;;;4.20;99.90;;;;;;5035077;28;20410;-66
2021/01/03 12:14:23;;;;;;;19.57;17.30;;;4.10;99.90;;;;;;5034971;28;20402;-66
2021/01/03 12:16:54;;;;;;;20.70;17.03;;;4.00;99.90;;;;;;5033953;28;20918;-66
2021/01/03 12:19:20;;;;;;;19.03;15.97;;;4.20;99.90;;;;;;5034506;28;20468;-66
2021/01/03 12:21:45;;;;;;;20.43;17.57;;;4.40;99.90;;;;;;5034883;28;20406;-67
2021/01/03 12:24:11;;;;;;;18.10;15.57;;;4.40;99.90;;;;;;5034533;28;20402;-67
2021/01/03 12:26:40;;;;;;;18.90;15.47;;;4.40;99.90;;;;;;5030923;28;20195;-67
2021/01/03 12:29:07;;;;;;;21.20;17.27;;;4.50;99.90;;;;;;5014737;28;20584;-67
2021/01/03 12:31:34;;;;;;;20.70;18.00;;;4.50;99.90;;;;;;5014143;28;20441;-68
2021/01/03 12:34:00;;;;;;;18.93;16.90;;;4.60;99.90;;;;;;5014561;28;20456;-67
2021/01/03 12:36:25;;;;;;;18.50;16.43;;;4.70;99.90;;;;;;5014447;28;20816;-66
2021/01/03 12:38:51;;;;;;;23.03;20.57;;;4.70;99.90;;;;;;5014671;28;20665;-66
2021/01/03 12:41:21;;;;;;;22.30;18.73;;;4.60;99.90;;;;;;5014431;28;20251;-66
2021/01/03 12:43:48;;;;;;;18.30;16.00;;;4.50;99.90;;;;;;5014600;28;20152;-66
2021/01/03 12:46:22;;;;;;;19.67;17.00;;;4.50;99.90;;;;;;5014112;28;20474;-67
2021/01/03 12:48:48;;;;;;;18.07;15.90;;;4.50;99.90;;;;;;5014032;28;20456;-66
2021/01/03 12:51:14;;;;;;;18.20;15.83;;;4.50;99.90;;;;;;5014254;28;20860;-66
2021/01/03 12:53:40;;;;;;;20.80;18.60;;;4.40;99.90;;;;;;5013973;28;20582;-66
2021/01/03 12:56:06;;;;;;;21.57;17.17;;;4.20;99.90;;;;;;5014262;28;20411;-67